sensor_id;sensor_type;location;lat;lon;timestamp;temperature;humidity
32334;DHT22;18810;53.040;8.850;2023-07-31T00:03:50;16.60;99.90
32334;DHT22;18810;53.040;8.850;2023-07-31T00:06:16;16.60;99.90
32334;DHT22;18810;53.040;8.850;2023-07-31T00:11:08;16.60;99.90
32334;DHT22;18810;53.040;8.850;2023-07-31T00:15:59;16.60;99.90
32334;DHT22;18810;53.040;8.850;2023-07-31T00:23:17;16.60;99.90
32334;DHT22;18810;53.040;8.850;2023-07-31T00:25:42;16.60;99.90
32334;DHT22;18810;53.040;8.850;2023-07-31T00:28:08;16.50;99.90
32334;DHT22;18810;53.040;8.850;2023-07-31T00:30:33;16.50;99.90
32334;DHT22;18810;53.040;8.850;2023-07-31T00:37:51;16.50;99.90
32334;DHT22;18810;53.040;8.850;2023-07-31T00:40:17;16.50;99.90
32334;DHT22;18810;53.040;8.850;2023-07-31T00:42:42;16.50;99.90
32334;DHT22;18810;53.040;8.850;2023-07-31T00:45:08;16.50;99.90
32334;DHT22;18810;53.040;8.850;2023-07-31T00:50:00;16.50;99.90
32334;DHT22;18810;53.040;8.850;2023-07-31T00:52:26;16.60;99.90
32334;DHT22;18810;53.040;8.850;2023-07-31T01:04:38;16.40;99.90
32334;DHT22;18810;53.040;8.850;2023-07-31T01:07:27;16.40;99.90
32334;DHT22;18810;53.040;8.850;2023-07-31T01:10:15;16.40;99.90
32334;DHT22;18810;53.040;8.850;2023-07-31T01:12:45;16.40;99.90
32334;DHT22;18810;53.040;8.850;2023-07-31T01:15:11;16.40;99.90
32334;DHT22;18810;53.040;8.850;2023-07-31T01:17:38;16.40;99.90
32334;DHT22;18810;53.040;8.850;2023-07-31T01:20:08;16.40;99.90
32334;DHT22;18810;53.040;8.850;2023-07-31T01:28:04;16.50;99.90
32334;DHT22;18810;53.040;8.850;2023-07-31T01:30:39;16.40;99.90
32334;DHT22;18810;53.040;8.850;2023-07-31T01:35:37;16.40;99.90
32334;DHT22;18810;53.040;8.850;2023-07-31T01:38:04;16.40;99.90
32334;DHT22;18810;53.040;8.850;2023-07-31T01:40:30;16.40;99.90
32334;DHT22;18810;53.040;8.850;2023-07-31T01:45:22;16.30;99.90
32334;DHT22;18810;53.040;8.850;2023-07-31T01:47:47;16.20;99.90
32334;DHT22;18810;53.040;8.850;2023-07-31T01:50:13;16.10;99.90
32334;DHT22;18810;53.040;8.850;2023-07-31T01:52:39;16.00;99.90
32334;DHT22;18810;53.040;8.850;2023-07-31T01:55:04;15.90;99.90
32334;DHT22;18810;53.040;8.850;2023-07-31T01:57:43;15.80;99.90
32334;DHT22;18810;53.040;8.850;2023-07-31T02:00:09;15.70;99.90
32334;DHT22;18810;53.040;8.850;2023-07-31T02:09:53;15.70;99.90
32334;DHT22;18810;53.040;8.850;2023-07-31T02:14:45;15.50;99.90
32334;DHT22;18810;53.040;8.850;2023-07-31T02:17:10;15.60;99.90
32334;DHT22;18810;53.040;8.850;2023-07-31T02:22:02;15.50;99.90
32334;DHT22;18810;53.040;8.850;2023-07-31T02:29:20;15.50;99.90
32334;DHT22;18810;53.040;8.850;2023-07-31T02:34:12;15.50;99.90
32334;DHT22;18810;53.040;8.850;2023-07-31T02:36:37;15.50;99.90
32334;DHT22;18810;53.040;8.850;2023-07-31T02:46:21;15.40;99.90
32334;DHT22;18810;53.040;8.850;2023-07-31T02:58:50;15.30;99.90
32334;DHT22;18810;53.040;8.850;2023-07-31T03:01:16;15.20;99.90
32334;DHT22;18810;53.040;8.850;2023-07-31T03:03:42;15.20;99.90
32334;DHT22;18810;53.040;8.850;2023-07-31T03:06:07;15.30;99.90
32334;DHT22;18810;53.040;8.850;2023-07-31T03:10:59;15.20;99.90
32334;DHT22;18810;53.040;8.850;2023-07-31T03:15:51;15.20;99.90
32334;DHT22;18810;53.040;8.850;2023-07-31T03:18:16;15.20;99.90
32334;DHT22;18810;53.040;8.850;2023-07-31T03:20:43;15.20;99.90
32334;DHT22;18810;53.040;8.850;2023-07-31T03:35:19;15.10;99.90
32334;DHT22;18810;53.040;8.850;2023-07-31T03:40:11;15.10;99.90
32334;DHT22;18810;53.040;8.850;2023-07-31T03:45:03;15.20;99.90
32334;DHT22;18810;53.040;8.850;2023-07-31T03:47:29;15.20;99.90
32334;DHT22;18810;53.040;8.850;2023-07-31T03:49:54;15.20;99.90
32334;DHT22;18810;53.040;8.850;2023-07-31T03:52:23;15.20;99.90
32334;DHT22;18810;53.040;8.850;2023-07-31T03:54:48;15.20;99.90
32334;DHT22;18810;53.040;8.850;2023-07-31T03:57:14;15.20;99.90
32334;DHT22;18810;53.040;8.850;2023-07-31T03:59:39;15.20;99.90
32334;DHT22;18810;53.040;8.850;2023-07-31T04:02:05;15.30;99.90
32334;DHT22;18810;53.040;8.850;2023-07-31T04:04:31;15.20;99.90
32334;DHT22;18810;53.040;8.850;2023-07-31T04:06:56;15.30;99.90
32334;DHT22;18810;53.040;8.850;2023-07-31T04:09:22;15.20;99.90
32334;DHT22;18810;53.040;8.850;2023-07-31T04:11:48;15.20;99.90
32334;DHT22;18810;53.040;8.850;2023-07-31T04:14:13;15.30;99.90
32334;DHT22;18810;53.040;8.850;2023-07-31T04:16:39;15.20;99.90
32334;DHT22;18810;53.040;8.850;2023-07-31T04:19:04;15.20;99.90
32334;DHT22;18810;53.040;8.850;2023-07-31T04:21:30;15.30;99.90
32334;DHT22;18810;53.040;8.850;2023-07-31T04:23:56;15.30;99.90
32334;DHT22;18810;53.040;8.850;2023-07-31T04:26:22;15.30;99.90
32334;DHT22;18810;53.040;8.850;2023-07-31T04:28:47;15.30;99.90
32334;DHT22;18810;53.040;8.850;2023-07-31T04:31:13;15.40;99.90
32334;DHT22;18810;53.040;8.850;2023-07-31T04:33:39;15.30;99.90
32334;DHT22;18810;53.040;8.850;2023-07-31T04:36:05;15.30;99.90
32334;DHT22;18810;53.040;8.850;2023-07-31T04:38:30;15.40;99.90
32334;DHT22;18810;53.040;8.850;2023-07-31T04:40:56;15.30;99.90
32334;DHT22;18810;53.040;8.850;2023-07-31T04:43:21;15.30;99.90
32334;DHT22;18810;53.040;8.850;2023-07-31T04:45:47;15.40;99.90
32334;DHT22;18810;53.040;8.850;2023-07-31T04:48:13;15.40;99.90
32334;DHT22;18810;53.040;8.850;2023-07-31T04:50:40;15.40;99.90
32334;DHT22;18810;53.040;8.850;2023-07-31T04:53:05;15.40;99.90
32334;DHT22;18810;53.040;8.850;2023-07-31T04:55:31;15.40;99.90
32334;DHT22;18810;53.040;8.850;2023-07-31T04:57:58;15.40;99.90
32334;DHT22;18810;53.040;8.850;2023-07-31T05:00:24;15.40;99.90
32334;DHT22;18810;53.040;8.850;2023-07-31T05:02:49;15.40;99.90
32334;DHT22;18810;53.040;8.850;2023-07-31T05:05:15;15.40;99.90
32334;DHT22;18810;53.040;8.850;2023-07-31T05:07:40;15.40;99.90
32334;DHT22;18810;53.040;8.850;2023-07-31T05:10:06;15.30;99.90
32334;DHT22;18810;53.040;8.850;2023-07-31T05:12:32;15.50;99.90
32334;DHT22;18810;53.040;8.850;2023-07-31T05:14:58;15.40;99.90
32334;DHT22;18810;53.040;8.850;2023-07-31T05:17:23;15.50;99.90
32334;DHT22;18810;53.040;8.850;2023-07-31T05:19:49;15.50;99.90
32334;DHT22;18810;53.040;8.850;2023-07-31T05:22:14;15.40;99.90
32334;DHT22;18810;53.040;8.850;2023-07-31T05:24:40;15.50;99.90
32334;DHT22;18810;53.040;8.850;2023-07-31T05:27:06;15.40;99.90
32334;DHT22;18810;53.040;8.850;2023-07-31T05:29:31;15.40;99.90
32334;DHT22;18810;53.040;8.850;2023-07-31T05:31:57;15.40;99.90
32334;DHT22;18810;53.040;8.850;2023-07-31T05:34:23;15.40;99.90
32334;DHT22;18810;53.040;8.850;2023-07-31T05:36:48;15.50;99.90
32334;DHT22;18810;53.040;8.850;2023-07-31T05:39:14;15.50;99.90
32334;DHT22;18810;53.040;8.850;2023-07-31T05:41:39;15.50;99.90
32334;DHT22;18810;53.040;8.850;2023-07-31T05:44:05;15.50;99.90
32334;DHT22;18810;53.040;8.850;2023-07-31T05:46:31;15.60;99.90
32334;DHT22;18810;53.040;8.850;2023-07-31T05:48:56;15.70;99.90
32334;DHT22;18810;53.040;8.850;2023-07-31T05:51:22;15.80;99.90
32334;DHT22;18810;53.040;8.850;2023-07-31T05:53:48;15.90;99.90
32334;DHT22;18810;53.040;8.850;2023-07-31T05:56:13;15.80;99.90
32334;DHT22;18810;53.040;8.850;2023-07-31T05:58:39;16.00;99.90
32334;DHT22;18810;53.040;8.850;2023-07-31T06:01:05;15.80;99.90
32334;DHT22;18810;53.040;8.850;2023-07-31T06:03:30;15.80;99.90
32334;DHT22;18810;53.040;8.850;2023-07-31T06:05:56;15.90;99.90
32334;DHT22;18810;53.040;8.850;2023-07-31T06:08:21;15.80;99.90
32334;DHT22;18810;53.040;8.850;2023-07-31T06:10:47;15.70;99.90
32334;DHT22;18810;53.040;8.850;2023-07-31T06:13:13;15.70;99.90
32334;DHT22;18810;53.040;8.850;2023-07-31T06:15:39;15.80;99.90
32334;DHT22;18810;53.040;8.850;2023-07-31T06:18:04;15.80;99.90
32334;DHT22;18810;53.040;8.850;2023-07-31T06:20:33;15.80;99.90
32334;DHT22;18810;53.040;8.850;2023-07-31T06:22:59;15.80;99.90
32334;DHT22;18810;53.040;8.850;2023-07-31T06:25:25;15.80;99.90
32334;DHT22;18810;53.040;8.850;2023-07-31T06:27:51;15.80;99.90
32334;DHT22;18810;53.040;8.850;2023-07-31T06:30:16;15.80;99.90
32334;DHT22;18810;53.040;8.850;2023-07-31T06:32:42;15.90;99.90
32334;DHT22;18810;53.040;8.850;2023-07-31T06:35:08;16.00;99.90
32334;DHT22;18810;53.040;8.850;2023-07-31T06:37:34;16.10;99.90
32334;DHT22;18810;53.040;8.850;2023-07-31T06:39:59;16.20;99.90
32334;DHT22;18810;53.040;8.850;2023-07-31T06:42:25;16.20;99.90
32334;DHT22;18810;53.040;8.850;2023-07-31T06:44:51;16.20;99.90
32334;DHT22;18810;53.040;8.850;2023-07-31T06:47:16;16.20;99.90
32334;DHT22;18810;53.040;8.850;2023-07-31T06:49:42;16.30;99.90
32334;DHT22;18810;53.040;8.850;2023-07-31T06:52:08;16.40;99.90
32334;DHT22;18810;53.040;8.850;2023-07-31T06:54:33;16.30;99.90
32334;DHT22;18810;53.040;8.850;2023-07-31T06:56:59;16.30;99.90
32334;DHT22;18810;53.040;8.850;2023-07-31T06:59:24;16.30;99.90
32334;DHT22;18810;53.040;8.850;2023-07-31T07:01:50;16.30;99.90
32334;DHT22;18810;53.040;8.850;2023-07-31T07:04:16;16.30;99.90
32334;DHT22;18810;53.040;8.850;2023-07-31T07:06:41;16.40;99.90
32334;DHT22;18810;53.040;8.850;2023-07-31T07:09:07;16.30;99.90
32334;DHT22;18810;53.040;8.850;2023-07-31T07:11:33;16.40;99.90
32334;DHT22;18810;53.040;8.850;2023-07-31T07:13:59;16.40;99.90
32334;DHT22;18810;53.040;8.850;2023-07-31T07:16:26;16.40;99.90
32334;DHT22;18810;53.040;8.850;2023-07-31T07:18:51;16.40;99.90
32334;DHT22;18810;53.040;8.850;2023-07-31T07:21:17;16.40;99.90
32334;DHT22;18810;53.040;8.850;2023-07-31T07:23:43;16.30;99.90
32334;DHT22;18810;53.040;8.850;2023-07-31T07:26:09;16.40;99.90
32334;DHT22;18810;53.040;8.850;2023-07-31T07:28:34;16.40;99.90
32334;DHT22;18810;53.040;8.850;2023-07-31T07:31:02;16.40;99.90
32334;DHT22;18810;53.040;8.850;2023-07-31T07:33:28;16.40;99.90
32334;DHT22;18810;53.040;8.850;2023-07-31T07:35:54;16.40;99.90
32334;DHT22;18810;53.040;8.850;2023-07-31T07:38:19;16.40;99.90
32334;DHT22;18810;53.040;8.850;2023-07-31T07:40:46;16.50;99.90
32334;DHT22;18810;53.040;8.850;2023-07-31T07:43:15;16.50;99.90
32334;DHT22;18810;53.040;8.850;2023-07-31T07:45:41;16.60;99.90
32334;DHT22;18810;53.040;8.850;2023-07-31T07:48:07;16.70;99.90
32334;DHT22;18810;53.040;8.850;2023-07-31T07:52:58;16.80;99.90
32334;DHT22;18810;53.040;8.850;2023-07-31T07:55:24;16.70;99.90
32334;DHT22;18810;53.040;8.850;2023-07-31T07:57:50;16.70;99.90
32334;DHT22;18810;53.040;8.850;2023-07-31T08:00:16;16.60;99.90
32334;DHT22;18810;53.040;8.850;2023-07-31T08:02:42;16.70;99.90
32334;DHT22;18810;53.040;8.850;2023-07-31T08:05:08;16.70;99.90
32334;DHT22;18810;53.040;8.850;2023-07-31T08:07:34;16.80;99.90
32334;DHT22;18810;53.040;8.850;2023-07-31T08:09:59;16.90;99.90
32334;DHT22;18810;53.040;8.850;2023-07-31T08:12:25;17.00;99.90
32334;DHT22;18810;53.040;8.850;2023-07-31T08:17:17;17.10;99.90
32334;DHT22;18810;53.040;8.850;2023-07-31T08:19:43;17.10;99.90
32334;DHT22;18810;53.040;8.850;2023-07-31T08:22:09;17.20;99.90
32334;DHT22;18810;53.040;8.850;2023-07-31T08:27:01;17.40;99.90
32334;DHT22;18810;53.040;8.850;2023-07-31T08:29:26;17.50;99.90
32334;DHT22;18810;53.040;8.850;2023-07-31T08:31:52;17.60;99.90
32334;DHT22;18810;53.040;8.850;2023-07-31T08:34:18;17.70;99.90
32334;DHT22;18810;53.040;8.850;2023-07-31T08:36:43;17.80;99.90
32334;DHT22;18810;53.040;8.850;2023-07-31T08:39:09;17.70;99.90
32334;DHT22;18810;53.040;8.850;2023-07-31T08:41:38;17.70;99.90
32334;DHT22;18810;53.040;8.850;2023-07-31T08:44:05;17.60;99.90
32334;DHT22;18810;53.040;8.850;2023-07-31T08:46:31;17.80;99.90
32334;DHT22;18810;53.040;8.850;2023-07-31T08:48:59;18.50;99.90
32334;DHT22;18810;53.040;8.850;2023-07-31T08:51:25;18.40;99.90
32334;DHT22;18810;53.040;8.850;2023-07-31T08:53:53;18.60;99.90
32334;DHT22;18810;53.040;8.850;2023-07-31T08:56:19;18.70;99.90
32334;DHT22;18810;53.040;8.850;2023-07-31T08:58:45;18.60;99.90
32334;DHT22;18810;53.040;8.850;2023-07-31T09:01:12;18.60;99.90
32334;DHT22;18810;53.040;8.850;2023-07-31T09:03:39;18.30;99.90
32334;DHT22;18810;53.040;8.850;2023-07-31T09:06:06;18.70;99.90
32334;DHT22;18810;53.040;8.850;2023-07-31T09:08:32;18.60;99.90
32334;DHT22;18810;53.040;8.850;2023-07-31T09:11:02;18.60;99.90
32334;DHT22;18810;53.040;8.850;2023-07-31T09:13:31;18.50;99.90
32334;DHT22;18810;53.040;8.850;2023-07-31T09:15:57;18.40;99.90
32334;DHT22;18810;53.040;8.850;2023-07-31T09:18:23;18.40;99.90
32334;DHT22;18810;53.040;8.850;2023-07-31T09:21:03;18.50;99.90
32334;DHT22;18810;53.040;8.850;2023-07-31T09:23:44;18.50;99.90
32334;DHT22;18810;53.040;8.850;2023-07-31T09:26:10;18.30;99.90
32334;DHT22;18810;53.040;8.850;2023-07-31T09:28:36;18.20;99.90
32334;DHT22;18810;53.040;8.850;2023-07-31T09:31:02;18.10;99.90
32334;DHT22;18810;53.040;8.850;2023-07-31T09:33:27;18.10;99.90
32334;DHT22;18810;53.040;8.850;2023-07-31T09:35:53;18.00;99.90
32334;DHT22;18810;53.040;8.850;2023-07-31T09:38:18;17.90;99.90
32334;DHT22;18810;53.040;8.850;2023-07-31T09:40:49;17.90;99.90
32334;DHT22;18810;53.040;8.850;2023-07-31T09:43:19;17.70;99.90
32334;DHT22;18810;53.040;8.850;2023-07-31T09:45:45;17.70;99.90
32334;DHT22;18810;53.040;8.850;2023-07-31T09:48:13;17.80;99.90
32334;DHT22;18810;53.040;8.850;2023-07-31T09:50:42;18.40;99.90
32334;DHT22;18810;53.040;8.850;2023-07-31T09:53:08;17.80;99.90
32334;DHT22;18810;53.040;8.850;2023-07-31T09:55:35;17.70;99.90
32334;DHT22;18810;53.040;8.850;2023-07-31T09:58:09;17.80;99.90
32334;DHT22;18810;53.040;8.850;2023-07-31T10:00:35;18.00;99.90
32334;DHT22;18810;53.040;8.850;2023-07-31T10:03:08;18.20;99.90
32334;DHT22;18810;53.040;8.850;2023-07-31T10:05:39;18.20;99.90
32334;DHT22;18810;53.040;8.850;2023-07-31T10:08:07;18.20;99.90
32334;DHT22;18810;53.040;8.850;2023-07-31T10:10:33;18.20;99.90
32334;DHT22;18810;53.040;8.850;2023-07-31T10:13:00;18.20;99.90
32334;DHT22;18810;53.040;8.850;2023-07-31T10:15:26;18.30;99.90
32334;DHT22;18810;53.040;8.850;2023-07-31T10:17:52;18.40;99.90
32334;DHT22;18810;53.040;8.850;2023-07-31T10:20:20;18.50;99.90
32334;DHT22;18810;53.040;8.850;2023-07-31T10:22:46;18.60;99.90
32334;DHT22;18810;53.040;8.850;2023-07-31T10:25:12;18.60;99.90
32334;DHT22;18810;53.040;8.850;2023-07-31T10:27:39;18.70;99.90
32334;DHT22;18810;53.040;8.850;2023-07-31T10:30:10;18.60;99.90
32334;DHT22;18810;53.040;8.850;2023-07-31T10:32:38;18.60;99.90
32334;DHT22;18810;53.040;8.850;2023-07-31T10:35:06;18.80;99.90
32334;DHT22;18810;53.040;8.850;2023-07-31T10:37:40;18.80;99.90
32334;DHT22;18810;53.040;8.850;2023-07-31T10:40:26;19.20;99.90
32334;DHT22;18810;53.040;8.850;2023-07-31T10:42:54;19.30;99.90
32334;DHT22;18810;53.040;8.850;2023-07-31T10:45:42;19.30;99.90
32334;DHT22;18810;53.040;8.850;2023-07-31T10:48:15;19.00;99.90
32334;DHT22;18810;53.040;8.850;2023-07-31T10:50:49;19.00;99.90
32334;DHT22;18810;53.040;8.850;2023-07-31T10:53:32;18.80;99.90
32334;DHT22;18810;53.040;8.850;2023-07-31T10:55:59;18.60;99.90
32334;DHT22;18810;53.040;8.850;2023-07-31T10:58:25;18.70;99.90
32334;DHT22;18810;53.040;8.850;2023-07-31T11:00:55;18.80;99.90
32334;DHT22;18810;53.040;8.850;2023-07-31T11:03:25;18.80;99.90
32334;DHT22;18810;53.040;8.850;2023-07-31T11:06:04;19.10;99.90
32334;DHT22;18810;53.040;8.850;2023-07-31T11:08:31;19.30;99.90
32334;DHT22;18810;53.040;8.850;2023-07-31T11:13:49;19.30;99.90
32334;DHT22;18810;53.040;8.850;2023-07-31T11:16:17;19.30;99.90
32334;DHT22;18810;53.040;8.850;2023-07-31T11:18:45;19.40;99.90
32334;DHT22;18810;53.040;8.850;2023-07-31T11:21:15;19.60;99.90
32334;DHT22;18810;53.040;8.850;2023-07-31T11:23:46;19.70;99.90
32334;DHT22;18810;53.040;8.850;2023-07-31T11:26:11;19.50;99.90
32334;DHT22;18810;53.040;8.850;2023-07-31T11:28:37;19.50;99.90
32334;DHT22;18810;53.040;8.850;2023-07-31T11:31:04;19.80;99.90
32334;DHT22;18810;53.040;8.850;2023-07-31T11:33:30;19.80;99.90
32334;DHT22;18810;53.040;8.850;2023-07-31T11:35:56;20.00;99.90
32334;DHT22;18810;53.040;8.850;2023-07-31T11:38:33;20.00;99.90
32334;DHT22;18810;53.040;8.850;2023-07-31T11:41:01;19.80;99.90
32334;DHT22;18810;53.040;8.850;2023-07-31T11:43:31;19.60;99.90
32334;DHT22;18810;53.040;8.850;2023-07-31T11:45:58;19.60;99.90
32334;DHT22;18810;53.040;8.850;2023-07-31T11:48:32;19.60;99.90
32334;DHT22;18810;53.040;8.850;2023-07-31T11:51:05;19.40;99.90
32334;DHT22;18810;53.040;8.850;2023-07-31T11:53:51;19.30;99.90
32334;DHT22;18810;53.040;8.850;2023-07-31T11:56:19;19.30;99.90
32334;DHT22;18810;53.040;8.850;2023-07-31T11:58:58;19.50;99.90
32334;DHT22;18810;53.040;8.850;2023-07-31T12:01:25;19.80;99.90
32334;DHT22;18810;53.040;8.850;2023-07-31T12:03:53;19.60;99.90
32334;DHT22;18810;53.040;8.850;2023-07-31T12:06:19;19.50;99.90
32334;DHT22;18810;53.040;8.850;2023-07-31T12:08:46;19.50;99.90
32334;DHT22;18810;53.040;8.850;2023-07-31T12:11:12;19.40;99.90
32334;DHT22;18810;53.040;8.850;2023-07-31T12:13:40;19.30;99.90
32334;DHT22;18810;53.040;8.850;2023-07-31T12:16:06;19.30;99.90
32334;DHT22;18810;53.040;8.850;2023-07-31T12:18:37;19.20;99.90
32334;DHT22;18810;53.040;8.850;2023-07-31T12:21:06;19.10;99.90
32334;DHT22;18810;53.040;8.850;2023-07-31T12:23:32;19.00;99.90
32334;DHT22;18810;53.040;8.850;2023-07-31T12:26:07;19.10;99.90
32334;DHT22;18810;53.040;8.850;2023-07-31T12:28:41;19.00;99.90
32334;DHT22;18810;53.040;8.850;2023-07-31T12:31:09;19.00;99.90
32334;DHT22;18810;53.040;8.850;2023-07-31T12:33:36;18.90;99.90
32334;DHT22;18810;53.040;8.850;2023-07-31T12:36:09;18.90;99.90
32334;DHT22;18810;53.040;8.850;2023-07-31T12:38:35;19.10;99.90
32334;DHT22;18810;53.040;8.850;2023-07-31T12:41:03;19.50;99.90
32334;DHT22;18810;53.040;8.850;2023-07-31T12:43:29;19.40;99.90
32334;DHT22;18810;53.040;8.850;2023-07-31T12:45:55;19.50;99.90
32334;DHT22;18810;53.040;8.850;2023-07-31T12:48:24;19.50;99.90
32334;DHT22;18810;53.040;8.850;2023-07-31T12:50:50;19.50;99.90
32334;DHT22;18810;53.040;8.850;2023-07-31T12:53:15;19.60;99.90
32334;DHT22;18810;53.040;8.850;2023-07-31T12:55:41;19.50;99.90
32334;DHT22;18810;53.040;8.850;2023-07-31T12:58:07;19.70;99.90
32334;DHT22;18810;53.040;8.850;2023-07-31T13:00:33;19.80;99.90
32334;DHT22;18810;53.040;8.850;2023-07-31T13:02:59;20.10;99.90
32334;DHT22;18810;53.040;8.850;2023-07-31T13:05:26;20.10;99.90
32334;DHT22;18810;53.040;8.850;2023-07-31T13:07:51;20.10;99.90
32334;DHT22;18810;53.040;8.850;2023-07-31T13:10:17;20.10;99.90
32334;DHT22;18810;53.040;8.850;2023-07-31T13:12:43;20.00;99.90
32334;DHT22;18810;53.040;8.850;2023-07-31T13:15:08;19.90;99.90
32334;DHT22;18810;53.040;8.850;2023-07-31T13:17:35;19.80;99.90
32334;DHT22;18810;53.040;8.850;2023-07-31T13:20:01;19.90;99.90
32334;DHT22;18810;53.040;8.850;2023-07-31T13:22:26;19.80;99.90
32334;DHT22;18810;53.040;8.850;2023-07-31T13:24:52;19.80;99.90
32334;DHT22;18810;53.040;8.850;2023-07-31T13:27:18;19.60;99.90
32334;DHT22;18810;53.040;8.850;2023-07-31T13:29:46;19.60;99.90
32334;DHT22;18810;53.040;8.850;2023-07-31T13:32:11;19.60;99.90
32334;DHT22;18810;53.040;8.850;2023-07-31T13:34:37;19.70;99.90
32334;DHT22;18810;53.040;8.850;2023-07-31T13:37:03;19.70;99.90
32334;DHT22;18810;53.040;8.850;2023-07-31T13:39:31;19.80;99.90
32334;DHT22;18810;53.040;8.850;2023-07-31T13:41:57;19.90;99.90
32334;DHT22;18810;53.040;8.850;2023-07-31T13:44:22;20.00;99.90
32334;DHT22;18810;53.040;8.850;2023-07-31T13:46:48;20.00;99.90
32334;DHT22;18810;53.040;8.850;2023-07-31T13:49:14;20.10;99.90
32334;DHT22;18810;53.040;8.850;2023-07-31T13:51:39;20.10;99.90
32334;DHT22;18810;53.040;8.850;2023-07-31T13:54:05;20.00;99.90
32334;DHT22;18810;53.040;8.850;2023-07-31T13:56:32;19.90;99.90
32334;DHT22;18810;53.040;8.850;2023-07-31T13:58:58;19.90;99.90
32334;DHT22;18810;53.040;8.850;2023-07-31T14:01:23;20.00;99.90
32334;DHT22;18810;53.040;8.850;2023-07-31T14:03:49;20.00;99.90
32334;DHT22;18810;53.040;8.850;2023-07-31T14:06:15;19.90;99.90
32334;DHT22;18810;53.040;8.850;2023-07-31T14:08:41;19.90;99.90
32334;DHT22;18810;53.040;8.850;2023-07-31T14:11:06;20.00;99.90
32334;DHT22;18810;53.040;8.850;2023-07-31T14:13:32;20.20;99.90
32334;DHT22;18810;53.040;8.850;2023-07-31T14:15:57;20.10;99.90
32334;DHT22;18810;53.040;8.850;2023-07-31T14:18:23;20.20;99.90
32334;DHT22;18810;53.040;8.850;2023-07-31T14:20:49;20.10;99.90
32334;DHT22;18810;53.040;8.850;2023-07-31T14:23:14;20.10;99.90
32334;DHT22;18810;53.040;8.850;2023-07-31T14:25:41;20.20;99.90
32334;DHT22;18810;53.040;8.850;2023-07-31T14:28:07;20.20;99.90
32334;DHT22;18810;53.040;8.850;2023-07-31T14:30:32;20.30;99.90
32334;DHT22;18810;53.040;8.850;2023-07-31T14:32:58;20.70;99.90
32334;DHT22;18810;53.040;8.850;2023-07-31T14:35:26;20.70;99.90
32334;DHT22;18810;53.040;8.850;2023-07-31T14:37:51;21.00;99.90
32334;DHT22;18810;53.040;8.850;2023-07-31T14:40:17;21.00;99.90
32334;DHT22;18810;53.040;8.850;2023-07-31T14:42:42;21.00;99.90
32334;DHT22;18810;53.040;8.850;2023-07-31T14:45:08;21.00;99.90
32334;DHT22;18810;53.040;8.850;2023-07-31T14:47:35;21.00;99.90
32334;DHT22;18810;53.040;8.850;2023-07-31T14:50:01;21.10;99.90
32334;DHT22;18810;53.040;8.850;2023-07-31T14:52:27;21.00;99.90
32334;DHT22;18810;53.040;8.850;2023-07-31T14:54:54;20.70;99.90
32334;DHT22;18810;53.040;8.850;2023-07-31T14:57:20;20.60;99.90
32334;DHT22;18810;53.040;8.850;2023-07-31T14:59:46;20.50;99.90
32334;DHT22;18810;53.040;8.850;2023-07-31T15:02:12;20.40;99.90
32334;DHT22;18810;53.040;8.850;2023-07-31T15:04:38;20.30;99.90
32334;DHT22;18810;53.040;8.850;2023-07-31T15:07:04;20.20;99.90
32334;DHT22;18810;53.040;8.850;2023-07-31T15:09:30;19.90;99.90
32334;DHT22;18810;53.040;8.850;2023-07-31T15:11:56;19.70;99.90
32334;DHT22;18810;53.040;8.850;2023-07-31T15:14:23;19.50;99.90
32334;DHT22;18810;53.040;8.850;2023-07-31T15:16:49;19.40;99.90
32334;DHT22;18810;53.040;8.850;2023-07-31T15:19:15;19.20;99.90
32334;DHT22;18810;53.040;8.850;2023-07-31T15:21:41;19.20;99.90
32334;DHT22;18810;53.040;8.850;2023-07-31T15:24:07;19.20;99.90
32334;DHT22;18810;53.040;8.850;2023-07-31T15:26:32;19.20;99.90
32334;DHT22;18810;53.040;8.850;2023-07-31T15:29:03;19.20;99.90
32334;DHT22;18810;53.040;8.850;2023-07-31T15:31:34;19.20;99.90
32334;DHT22;18810;53.040;8.850;2023-07-31T15:33:59;19.20;99.90
32334;DHT22;18810;53.040;8.850;2023-07-31T15:36:25;19.20;99.90
32334;DHT22;18810;53.040;8.850;2023-07-31T15:38:51;19.20;99.90
32334;DHT22;18810;53.040;8.850;2023-07-31T15:41:18;19.20;99.90
32334;DHT22;18810;53.040;8.850;2023-07-31T15:43:43;19.30;99.90
32334;DHT22;18810;53.040;8.850;2023-07-31T15:46:09;19.40;99.90
32334;DHT22;18810;53.040;8.850;2023-07-31T15:48:35;19.50;99.90
32334;DHT22;18810;53.040;8.850;2023-07-31T15:51:01;19.30;99.90
32334;DHT22;18810;53.040;8.850;2023-07-31T15:53:28;19.30;99.90
32334;DHT22;18810;53.040;8.850;2023-07-31T15:55:54;19.40;99.90
32334;DHT22;18810;53.040;8.850;2023-07-31T15:58:20;19.40;99.90
32334;DHT22;18810;53.040;8.850;2023-07-31T16:00:46;19.50;99.90
32334;DHT22;18810;53.040;8.850;2023-07-31T16:03:11;19.60;99.90
32334;DHT22;18810;53.040;8.850;2023-07-31T16:05:37;19.60;99.90
32334;DHT22;18810;53.040;8.850;2023-07-31T16:08:03;19.60;99.90
32334;DHT22;18810;53.040;8.850;2023-07-31T16:10:28;19.70;99.90
32334;DHT22;18810;53.040;8.850;2023-07-31T16:12:54;20.00;99.90
32334;DHT22;18810;53.040;8.850;2023-07-31T16:15:20;19.90;99.90
32334;DHT22;18810;53.040;8.850;2023-07-31T16:17:45;20.10;99.90
32334;DHT22;18810;53.040;8.850;2023-07-31T16:20:11;20.10;99.90
32334;DHT22;18810;53.040;8.850;2023-07-31T16:22:37;20.20;99.90
32334;DHT22;18810;53.040;8.850;2023-07-31T16:25:03;20.20;99.90
32334;DHT22;18810;53.040;8.850;2023-07-31T16:27:29;20.20;99.90
32334;DHT22;18810;53.040;8.850;2023-07-31T16:29:54;20.10;99.90
32334;DHT22;18810;53.040;8.850;2023-07-31T16:32:21;19.90;99.90
32334;DHT22;18810;53.040;8.850;2023-07-31T16:34:47;19.90;99.90
32334;DHT22;18810;53.040;8.850;2023-07-31T16:37:12;20.00;99.90
32334;DHT22;18810;53.040;8.850;2023-07-31T16:39:38;20.00;99.90
32334;DHT22;18810;53.040;8.850;2023-07-31T16:42:05;20.00;99.90
32334;DHT22;18810;53.040;8.850;2023-07-31T16:44:31;20.00;99.90
32334;DHT22;18810;53.040;8.850;2023-07-31T16:46:57;19.90;99.90
32334;DHT22;18810;53.040;8.850;2023-07-31T16:49:22;19.90;99.90
32334;DHT22;18810;53.040;8.850;2023-07-31T16:51:48;20.00;99.90
32334;DHT22;18810;53.040;8.850;2023-07-31T16:54:14;19.90;99.90
32334;DHT22;18810;53.040;8.850;2023-07-31T16:56:40;20.10;99.90
32334;DHT22;18810;53.040;8.850;2023-07-31T16:59:05;20.00;99.90
32334;DHT22;18810;53.040;8.850;2023-07-31T17:01:32;19.90;99.90
32334;DHT22;18810;53.040;8.850;2023-07-31T17:03:59;19.90;99.90
32334;DHT22;18810;53.040;8.850;2023-07-31T17:06:28;19.80;99.90
32334;DHT22;18810;53.040;8.850;2023-07-31T17:08:53;19.80;99.90
32334;DHT22;18810;53.040;8.850;2023-07-31T17:11:20;19.80;99.90
32334;DHT22;18810;53.040;8.850;2023-07-31T17:13:46;19.80;99.90
32334;DHT22;18810;53.040;8.850;2023-07-31T17:16:11;19.80;99.90